sensor_id;sensor_type;location;lat;lon;timestamp;noise_LAeq;noise_LA_min;noise_LA_max;noise_LA01;noise_LA95
37163;Laerm;23057;48.554;14.454;2023-09-12T00:02:11;51.67;50.26;53.97;;
37163;Laerm;23057;48.554;14.454;2023-09-12T00:04:42;51.62;49.55;54.54;;
37163;Laerm;23057;48.554;14.454;2023-09-12T00:07:12;51.83;49.69;54.01;;
37163;Laerm;23057;48.554;14.454;2023-09-12T00:09:44;51.95;50.59;54.88;;
37163;Laerm;23057;48.554;14.454;2023-09-12T00:12:16;52.11;50.37;54.97;;
37163;Laerm;23057;48.554;14.454;2023-09-12T00:14:47;52.16;50.68;54.27;;
37163;Laerm;23057;48.554;14.454;2023-09-12T00:17:18;52.12;50.11;54.48;;
37163;Laerm;23057;48.554;14.454;2023-09-12T00:19:48;52.13;49.64;54.75;;
37163;Laerm;23057;48.554;14.454;2023-09-12T00:22:19;52.22;50.08;54.50;;
37163;Laerm;23057;48.554;14.454;2023-09-12T00:24:50;52.50;50.15;54.39;;
37163;Laerm;23057;48.554;14.454;2023-09-12T00:27:21;52.50;50.99;54.50;;
37163;Laerm;23057;48.554;14.454;2023-09-12T00:29:52;52.50;50.71;55.18;;
37163;Laerm;23057;48.554;14.454;2023-09-12T00:32:22;52.46;49.89;54.67;;
37163;Laerm;23057;48.554;14.454;2023-09-12T00:34:53;52.44;50.45;54.70;;
37163;Laerm;23057;48.554;14.454;2023-09-12T00:37:24;52.51;50.92;54.38;;
37163;Laerm;23057;48.554;14.454;2023-09-12T00:39:55;52.41;50.60;54.96;;
37163;Laerm;23057;48.554;14.454;2023-09-12T00:42:26;50.99;49.20;54.77;;
37163;Laerm;23057;48.554;14.454;2023-09-12T00:44:57;50.59;49.21;54.44;;
37163;Laerm;23057;48.554;14.454;2023-09-12T00:47:30;52.43;49.84;54.76;;
37163;Laerm;23057;48.554;14.454;2023-09-12T00:50:05;52.46;49.91;54.53;;
37163;Laerm;23057;48.554;14.454;2023-09-12T00:52:39;52.47;51.25;54.45;;
37163;Laerm;23057;48.554;14.454;2023-09-12T00:55:11;52.51;50.92;54.00;;
37163;Laerm;23057;48.554;14.454;2023-09-12T00:57:43;52.34;49.47;54.42;;
37163;Laerm;23057;48.554;14.454;2023-09-12T01:00:15;52.26;49.35;54.62;;
37163;Laerm;23057;48.554;14.454;2023-09-12T01:02:46;52.35;50.75;54.73;;
37163;Laerm;23057;48.554;14.454;2023-09-12T01:05:20;52.52;49.93;54.36;;
37163;Laerm;23057;48.554;14.454;2023-09-12T01:07:53;52.40;49.21;54.71;;
37163;Laerm;23057;48.554;14.454;2023-09-12T01:10:24;52.91;50.96;55.16;;
37163;Laerm;23057;48.554;14.454;2023-09-12T01:12:55;52.41;50.91;55.79;;
37163;Laerm;23057;48.554;14.454;2023-09-12T01:15:26;52.25;50.47;54.78;;
37163;Laerm;23057;48.554;14.454;2023-09-12T01:17:57;52.43;49.84;56.18;;
37163;Laerm;23057;48.554;14.454;2023-09-12T01:20:34;53.36;50.39;56.26;;
37163;Laerm;23057;48.554;14.454;2023-09-12T01:27:22;51.06;49.29;62.29;;
37163;Laerm;23057;48.554;14.454;2023-09-12T01:30:02;51.39;49.72;62.98;;
37163;Laerm;23057;48.554;14.454;2023-09-12T01:32:36;51.12;49.40;62.47;;
37163;Laerm;23057;48.554;14.454;2023-09-12T01:35:08;51.31;49.35;56.34;;
37163;Laerm;23057;48.554;14.454;2023-09-12T01:37:39;53.61;49.88;55.57;;
37163;Laerm;23057;48.554;14.454;2023-09-12T01:40:10;53.63;49.77;56.09;;
37163;Laerm;23057;48.554;14.454;2023-09-12T01:42:47;53.86;50.14;56.57;;
37163;Laerm;23057;48.554;14.454;2023-09-12T01:45:19;53.99;52.27;55.96;;
37163;Laerm;23057;48.554;14.454;2023-09-12T01:47:51;53.68;51.67;55.41;;
37163;Laerm;23057;48.554;14.454;2023-09-12T01:50:26;53.77;51.13;55.46;;
37163;Laerm;23057;48.554;14.454;2023-09-12T01:53:00;54.11;52.88;56.07;;
37163;Laerm;23057;48.554;14.454;2023-09-12T01:55:32;52.92;49.96;56.62;;
37163;Laerm;23057;48.554;14.454;2023-09-12T01:58:04;51.46;49.67;62.45;;
37163;Laerm;23057;48.554;14.454;2023-09-12T02:00:36;51.35;49.73;56.31;;
37163;Laerm;23057;48.554;14.454;2023-09-12T02:03:06;51.24;49.88;53.62;;
37163;Laerm;23057;48.554;14.454;2023-09-12T02:05:39;52.43;49.63;59.81;;
37163;Laerm;23057;48.554;14.454;2023-09-12T02:08:11;52.77;51.25;55.31;;
37163;Laerm;23057;48.554;14.454;2023-09-12T02:10:41;52.79;51.22;57.62;;
37163;Laerm;23057;48.554;14.454;2023-09-12T02:13:12;52.50;50.07;55.06;;
37163;Laerm;23057;48.554;14.454;2023-09-12T02:15:43;52.72;49.91;57.03;;
37163;Laerm;23057;48.554;14.454;2023-09-12T02:18:14;51.04;49.39;57.57;;
37163;Laerm;23057;48.554;14.454;2023-09-12T02:20:45;51.67;49.29;58.09;;
37163;Laerm;23057;48.554;14.454;2023-09-12T02:23:16;53.91;50.73;59.01;;
37163;Laerm;23057;48.554;14.454;2023-09-12T02:25:47;55.19;51.01;58.63;;
37163;Laerm;23057;48.554;14.454;2023-09-12T02:28:18;54.71;50.82;56.77;;
37163;Laerm;23057;48.554;14.454;2023-09-12T02:30:49;54.87;49.95;56.74;;
37163;Laerm;23057;48.554;14.454;2023-09-12T02:33:19;54.75;49.87;56.91;;
37163;Laerm;23057;48.554;14.454;2023-09-12T02:35:50;54.79;50.93;56.94;;
37163;Laerm;23057;48.554;14.454;2023-09-12T02:38:21;55.15;50.21;57.28;;
37163;Laerm;23057;48.554;14.454;2023-09-12T02:40:52;54.96;49.95;56.95;;
37163;Laerm;23057;48.554;14.454;2023-09-12T02:43:23;54.54;50.21;56.93;;
37163;Laerm;23057;48.554;14.454;2023-09-12T02:45:54;54.31;50.29;56.80;;
37163;Laerm;23057;48.554;14.454;2023-09-12T02:48:24;54.42;50.30;56.78;;
37163;Laerm;23057;48.554;14.454;2023-09-12T02:50:55;54.26;50.13;56.50;;
37163;Laerm;23057;48.554;14.454;2023-09-12T02:53:26;54.48;50.33;56.74;;
37163;Laerm;23057;48.554;14.454;2023-09-12T02:55:57;54.24;50.39;56.55;;
37163;Laerm;23057;48.554;14.454;2023-09-12T02:58:28;54.18;49.96;56.29;;
37163;Laerm;23057;48.554;14.454;2023-09-12T03:00:58;54.30;50.02;56.44;;
37163;Laerm;23057;48.554;14.454;2023-09-12T03:03:30;54.41;50.92;56.62;;
37163;Laerm;23057;48.554;14.454;2023-09-12T03:06:02;54.13;50.49;56.41;;
37163;Laerm;23057;48.554;14.454;2023-09-12T03:08:35;54.06;50.17;62.34;;
37163;Laerm;23057;48.554;14.454;2023-09-12T03:11:06;54.67;50.34;56.52;;
37163;Laerm;23057;48.554;14.454;2023-09-12T03:13:41;54.55;50.09;56.97;;
37163;Laerm;23057;48.554;14.454;2023-09-12T03:16:14;54.55;50.19;56.84;;
37163;Laerm;23057;48.554;14.454;2023-09-12T03:18:45;54.24;50.50;56.74;;
37163;Laerm;23057;48.554;14.454;2023-09-12T03:21:15;54.50;50.74;57.49;;
37163;Laerm;23057;48.554;14.454;2023-09-12T03:23:46;53.69;49.53;60.37;;
37163;Laerm;23057;48.554;14.454;2023-09-12T03:26:17;53.20;49.52;61.12;;
37163;Laerm;23057;48.554;14.454;2023-09-12T03:28:49;52.87;49.57;59.29;;
37163;Laerm;23057;48.554;14.454;2023-09-12T03:31:23;53.77;49.63;59.26;;
37163;Laerm;23057;48.554;14.454;2023-09-12T03:33:54;53.83;50.50;56.56;;
37163;Laerm;23057;48.554;14.454;2023-09-12T03:36:24;54.47;50.60;56.84;;
37163;Laerm;23057;48.554;14.454;2023-09-12T03:38:55;54.16;49.63;56.68;;
37163;Laerm;23057;48.554;14.454;2023-09-12T03:41:26;54.24;50.58;56.65;;
37163;Laerm;23057;48.554;14.454;2023-09-12T03:43:57;54.11;49.79;56.50;;
37163;Laerm;23057;48.554;14.454;2023-09-12T03:46:28;54.19;49.96;56.49;;
37163;Laerm;23057;48.554;14.454;2023-09-12T03:48:59;54.27;50.65;57.10;;
37163;Laerm;23057;48.554;14.454;2023-09-12T03:51:29;54.06;49.56;60.26;;
37163;Laerm;23057;48.554;14.454;2023-09-12T03:54:00;53.01;49.63;61.31;;
37163;Laerm;23057;48.554;14.454;2023-09-12T03:56:31;53.22;49.73;61.16;;
37163;Laerm;23057;48.554;14.454;2023-09-12T03:59:02;52.60;49.65;60.35;;
37163;Laerm;23057;48.554;14.454;2023-09-12T04:01:33;52.88;49.66;60.82;;
37163;Laerm;23057;48.554;14.454;2023-09-12T04:04:04;52.88;49.46;58.52;;
37163;Laerm;23057;48.554;14.454;2023-09-12T04:06:35;52.94;49.51;60.51;;
37163;Laerm;23057;48.554;14.454;2023-09-12T04:09:06;52.69;49.57;60.38;;
37163;Laerm;23057;48.554;14.454;2023-09-12T04:11:37;51.62;49.12;57.33;;
37163;Laerm;23057;48.554;14.454;2023-09-12T04:14:08;51.00;49.14;57.13;;
37163;Laerm;23057;48.554;14.454;2023-09-12T04:16:39;52.90;49.29;55.06;;
37163;Laerm;23057;48.554;14.454;2023-09-12T04:19:10;53.11;50.44;55.32;;
37163;Laerm;23057;48.554;14.454;2023-09-12T04:21:41;52.90;51.20;55.47;;
37163;Laerm;23057;48.554;14.454;2023-09-12T04:24:12;53.16;51.26;55.90;;
37163;Laerm;23057;48.554;14.454;2023-09-12T04:26:43;53.32;49.89;55.34;;
37163;Laerm;23057;48.554;14.454;2023-09-12T04:29:14;52.83;49.35;54.94;;
37163;Laerm;23057;48.554;14.454;2023-09-12T04:31:45;53.12;51.45;54.99;;
37163;Laerm;23057;48.554;14.454;2023-09-12T04:34:16;53.39;49.35;55.38;;
37163;Laerm;23057;48.554;14.454;2023-09-12T04:36:47;53.21;49.59;55.31;;
37163;Laerm;23057;48.554;14.454;2023-09-12T04:39:18;53.22;49.34;54.75;;
37163;Laerm;23057;48.554;14.454;2023-09-12T04:41:48;53.70;50.02;64.73;;
37163;Laerm;23057;48.554;14.454;2023-09-12T04:44:19;53.86;51.92;56.05;;
37163;Laerm;23057;48.554;14.454;2023-09-12T04:46:50;53.60;50.01;55.31;;
37163;Laerm;23057;48.554;14.454;2023-09-12T04:49:21;54.13;52.38;56.21;;
37163;Laerm;23057;48.554;14.454;2023-09-12T04:51:52;53.90;52.09;55.88;;
37163;Laerm;23057;48.554;14.454;2023-09-12T04:54:23;54.04;52.57;56.27;;
37163;Laerm;23057;48.554;14.454;2023-09-12T04:56:53;53.04;49.70;55.18;;
37163;Laerm;23057;48.554;14.454;2023-09-12T04:59:24;53.11;49.51;56.79;;
37163;Laerm;23057;48.554;14.454;2023-09-12T05:01:55;53.47;50.80;55.84;;
37163;Laerm;23057;48.554;14.454;2023-09-12T05:04:26;55.30;51.13;58.68;;
37163;Laerm;23057;48.554;14.454;2023-09-12T05:06:56;56.02;51.14;60.30;;
37163;Laerm;23057;48.554;14.454;2023-09-12T05:09:27;58.24;52.15;68.47;;
37163;Laerm;23057;48.554;14.454;2023-09-12T05:11:58;60.66;55.63;68.02;;
37163;Laerm;23057;48.554;14.454;2023-09-12T05:14:29;62.07;56.23;68.96;;
37163;Laerm;23057;48.554;14.454;2023-09-12T05:17:00;62.83;57.51;68.92;;
37163;Laerm;23057;48.554;14.454;2023-09-12T05:19:32;63.53;58.53;67.74;;
37163;Laerm;23057;48.554;14.454;2023-09-12T05:22:03;64.88;59.62;68.94;;
37163;Laerm;23057;48.554;14.454;2023-09-12T05:24:34;65.42;59.03;70.12;;
37163;Laerm;23057;48.554;14.454;2023-09-12T05:27:05;65.86;59.19;70.44;;
37163;Laerm;23057;48.554;14.454;2023-09-12T05:29:36;65.18;58.99;69.94;;
37163;Laerm;23057;48.554;14.454;2023-09-12T05:32:07;66.32;60.63;70.07;;
37163;Laerm;23057;48.554;14.454;2023-09-12T05:34:38;66.43;60.56;71.58;;
37163;Laerm;23057;48.554;14.454;2023-09-12T05:37:09;65.72;57.92;69.73;;
37163;Laerm;23057;48.554;14.454;2023-09-12T05:39:39;65.47;57.32;69.65;;
37163;Laerm;23057;48.554;14.454;2023-09-12T05:42:10;67.33;59.55;72.84;;
37163;Laerm;23057;48.554;14.454;2023-09-12T05:44:42;67.45;52.92;79.48;;
37163;Laerm;23057;48.554;14.454;2023-09-12T05:47:15;68.63;64.37;73.73;;
37163;Laerm;23057;48.554;14.454;2023-09-12T05:49:46;68.95;54.53;73.31;;
37163;Laerm;23057;48.554;14.454;2023-09-12T05:52:17;66.45;63.13;73.31;;
37163;Laerm;23057;48.554;14.454;2023-09-12T05:54:48;68.40;62.55;73.02;;
37163;Laerm;23057;48.554;14.454;2023-09-12T05:57:19;68.34;52.64;72.76;;
37163;Laerm;23057;48.554;14.454;2023-09-12T05:59:50;65.49;52.58;73.21;;
37163;Laerm;23057;48.554;14.454;2023-09-12T06:02:21;60.71;53.14;67.63;;
37163;Laerm;23057;48.554;14.454;2023-09-12T06:04:52;63.78;59.03;81.38;;
37163;Laerm;23057;48.554;14.454;2023-09-12T06:07:22;66.95;60.88;72.52;;
37163;Laerm;23057;48.554;14.454;2023-09-12T06:09:53;66.69;61.07;72.22;;
37163;Laerm;23057;48.554;14.454;2023-09-12T06:12:24;65.29;61.62;69.58;;
37163;Laerm;23057;48.554;14.454;2023-09-12T06:14:55;65.69;61.48;71.50;;
37163;Laerm;23057;48.554;14.454;2023-09-12T06:17:26;64.32;60.71;71.21;;
37163;Laerm;23057;48.554;14.454;2023-09-12T06:19:58;63.85;58.09;69.65;;
37163;Laerm;23057;48.554;14.454;2023-09-12T06:22:29;65.36;60.43;74.55;;
37163;Laerm;23057;48.554;14.454;2023-09-12T06:25:00;65.11;60.67;74.76;;
37163;Laerm;23057;48.554;14.454;2023-09-12T06:27:31;64.59;60.27;81.18;;
37163;Laerm;23057;48.554;14.454;2023-09-12T06:30:02;65.17;61.17;70.76;;
37163;Laerm;23057;48.554;14.454;2023-09-12T06:32:33;66.29;57.37;70.59;;
37163;Laerm;23057;48.554;14.454;2023-09-12T06:35:05;64.60;60.36;72.33;;
37163;Laerm;23057;48.554;14.454;2023-09-12T06:37:38;63.86;59.15;82.51;;
37163;Laerm;23057;48.554;14.454;2023-09-12T06:40:10;65.17;61.28;74.23;;
37163;Laerm;23057;48.554;14.454;2023-09-12T06:42:42;65.53;60.01;78.49;;
37163;Laerm;23057;48.554;14.454;2023-09-12T06:45:14;68.50;62.34;82.04;;
37163;Laerm;23057;48.554;14.454;2023-09-12T06:47:44;69.90;64.26;73.86;;
37163;Laerm;23057;48.554;14.454;2023-09-12T06:50:15;68.74;63.35;75.38;;
37163;Laerm;23057;48.554;14.454;2023-09-12T06:52:46;66.96;59.64;75.12;;
37163;Laerm;23057;48.554;14.454;2023-09-12T06:55:17;66.14;62.49;76.53;;
37163;Laerm;23057;48.554;14.454;2023-09-12T06:57:47;66.33;58.45;82.92;;
37163;Laerm;23057;48.554;14.454;2023-09-12T07:00:18;65.30;60.18;73.84;;
37163;Laerm;23057;48.554;14.454;2023-09-12T07:02:50;63.00;57.26;71.10;;
37163;Laerm;23057;48.554;14.454;2023-09-12T07:05:21;62.79;58.75;72.14;;
37163;Laerm;23057;48.554;14.454;2023-09-12T07:07:52;63.48;55.37;74.71;;
37163;Laerm;23057;48.554;14.454;2023-09-12T07:10:23;62.43;57.25;82.07;;
37163;Laerm;23057;48.554;14.454;2023-09-12T07:12:54;63.11;56.77;74.03;;
37163;Laerm;23057;48.554;14.454;2023-09-12T07:15:25;63.50;58.99;73.70;;
37163;Laerm;23057;48.554;14.454;2023-09-12T07:17:56;63.74;56.56;75.05;;
37163;Laerm;23057;48.554;14.454;2023-09-12T07:20:27;66.37;57.30;73.54;;
37163;Laerm;23057;48.554;14.454;2023-09-12T07:22:58;67.36;57.33;73.63;;
37163;Laerm;23057;48.554;14.454;2023-09-12T07:25:28;67.90;59.82;73.57;;
37163;Laerm;23057;48.554;14.454;2023-09-12T07:27:59;76.98;60.09;84.42;;
37163;Laerm;23057;48.554;14.454;2023-09-12T07:30:30;78.88;56.40;84.78;;
37163;Laerm;23057;48.554;14.454;2023-09-12T07:33:03;79.65;61.47;84.13;;
37163;Laerm;23057;48.554;14.454;2023-09-12T07:35:35;73.26;62.51;82.80;;
37163;Laerm;23057;48.554;14.454;2023-09-12T07:38:05;70.74;61.30;83.81;;
37163;Laerm;23057;48.554;14.454;2023-09-12T07:40:36;64.89;60.42;70.55;;
37163;Laerm;23057;48.554;14.454;2023-09-12T07:43:07;64.79;59.02;70.21;;
37163;Laerm;23057;48.554;14.454;2023-09-12T07:45:38;64.82;60.15;70.05;;
37163;Laerm;23057;48.554;14.454;2023-09-12T07:48:10;64.29;60.52;69.39;;
37163;Laerm;23057;48.554;14.454;2023-09-12T07:50:43;64.48;60.76;70.01;;
37163;Laerm;23057;48.554;14.454;2023-09-12T07:53:15;64.73;61.15;68.64;;
37163;Laerm;23057;48.554;14.454;2023-09-12T07:55:46;64.25;60.87;67.94;;
37163;Laerm;23057;48.554;14.454;2023-09-12T07:58:18;63.99;61.42;68.47;;
37163;Laerm;23057;48.554;14.454;2023-09-12T08:00:49;64.69;62.66;85.09;;
37163;Laerm;23057;48.554;14.454;2023-09-12T08:03:20;65.09;63.47;67.47;;
37163;Laerm;23057;48.554;14.454;2023-09-12T08:05:57;65.09;63.52;68.11;;
37163;Laerm;23057;48.554;14.454;2023-09-12T08:08:29;64.40;52.91;66.36;;
37163;Laerm;23057;48.554;14.454;2023-09-12T08:11:01;64.07;52.68;66.70;;
37163;Laerm;23057;48.554;14.454;2023-09-12T08:13:32;62.56;51.19;68.19;;
37163;Laerm;23057;48.554;14.454;2023-09-12T08:16:03;63.24;52.56;69.13;;
37163;Laerm;23057;48.554;14.454;2023-09-12T08:18:34;62.33;52.08;68.93;;
37163;Laerm;23057;48.554;14.454;2023-09-12T08:21:05;61.11;50.28;79.90;;
37163;Laerm;23057;48.554;14.454;2023-09-12T08:23:36;62.32;50.66;67.17;;
37163;Laerm;23057;48.554;14.454;2023-09-12T08:26:06;62.74;50.64;69.21;;
37163;Laerm;23057;48.554;14.454;2023-09-12T08:28:39;60.97;49.95;70.67;;
37163;Laerm;23057;48.554;14.454;2023-09-12T08:31:10;60.93;50.18;80.16;;
37163;Laerm;23057;48.554;14.454;2023-09-12T08:33:41;61.32;50.25;70.58;;
37163;Laerm;23057;48.554;14.454;2023-09-12T08:36:12;61.52;50.23;73.18;;
37163;Laerm;23057;48.554;14.454;2023-09-12T08:38:43;60.37;49.71;71.81;;
37163;Laerm;23057;48.554;14.454;2023-09-12T08:41:14;60.26;49.52;70.95;;
37163;Laerm;23057;48.554;14.454;2023-09-12T08:43:46;60.38;49.71;72.10;;
37163;Laerm;23057;48.554;14.454;2023-09-12T08:46:21;60.27;49.72;70.41;;
37163;Laerm;23057;48.554;14.454;2023-09-12T08:48:55;62.07;49.91;68.60;;
37163;Laerm;23057;48.554;14.454;2023-09-12T08:51:26;61.20;49.40;71.10;;
37163;Laerm;23057;48.554;14.454;2023-09-12T08:53:57;62.08;49.39;74.21;;
37163;Laerm;23057;48.554;14.454;2023-09-12T08:56:28;61.47;48.71;71.80;;
37163;Laerm;23057;48.554;14.454;2023-09-12T08:59:04;62.10;49.44;70.94;;
37163;Laerm;23057;48.554;14.454;2023-09-12T09:01:36;61.39;49.15;72.78;;
37163;Laerm;23057;48.554;14.454;2023-09-12T09:04:07;61.50;49.59;72.03;;
37163;Laerm;23057;48.554;14.454;2023-09-12T09:06:41;62.33;49.27;70.92;;
37163;Laerm;23057;48.554;14.454;2023-09-12T09:09:13;61.49;49.46;71.43;;
37163;Laerm;23057;48.554;14.454;2023-09-12T09:11:44;61.44;49.35;71.16;;
37163;Laerm;23057;48.554;14.454;2023-09-12T09:14:15;60.34;49.19;72.15;;
37163;Laerm;23057;48.554;14.454;2023-09-12T09:16:46;60.08;49.44;71.89;;
37163;Laerm;23057;48.554;14.454;2023-09-12T09:19:17;61.18;49.24;67.40;;
37163;Laerm;23057;48.554;14.454;2023-09-12T09:21:49;59.45;49.95;70.69;;
37163;Laerm;23057;48.554;14.454;2023-09-12T09:24:19;54.20;51.21;69.17;;
37163;Laerm;23057;48.554;14.454;2023-09-12T09:26:52;54.44;51.87;67.84;;
37163;Laerm;23057;48.554;14.454;2023-09-12T09:29:29;55.12;51.17;80.97;;
37163;Laerm;23057;48.554;14.454;2023-09-12T09:32:02;54.49;50.13;81.71;;
37163;Laerm;23057;48.554;14.454;2023-09-12T09:34:39;55.55;51.13;68.35;;
37163;Laerm;23057;48.554;14.454;2023-09-12T09:37:12;55.97;52.26;69.16;;
37163;Laerm;23057;48.554;14.454;2023-09-12T09:39:47;55.49;49.97;69.66;;
37163;Laerm;23057;48.554;14.454;2023-09-12T09:42:23;54.57;49.47;70.88;;
37163;Laerm;23057;48.554;14.454;2023-09-12T09:44:54;54.97;49.80;81.16;;
37163;Laerm;23057;48.554;14.454;2023-09-12T09:47:25;55.00;49.91;80.45;;
37163;Laerm;23057;48.554;14.454;2023-09-12T09:49:58;54.42;50.35;69.86;;
37163;Laerm;23057;48.554;14.454;2023-09-12T09:52:30;55.50;49.77;70.86;;
37163;Laerm;23057;48.554;14.454;2023-09-12T09:55:00;55.13;49.91;70.84;;
37163;Laerm;23057;48.554;14.454;2023-09-12T09:57:37;55.41;49.35;70.59;;
37163;Laerm;23057;48.554;14.454;2023-09-12T10:00:08;56.18;49.21;72.25;;
37163;Laerm;23057;48.554;14.454;2023-09-12T10:02:49;54.88;49.58;73.67;;
37163;Laerm;23057;48.554;14.454;2023-09-12T10:05:22;54.49;49.70;70.73;;
37163;Laerm;23057;48.554;14.454;2023-09-12T10:07:57;55.59;49.29;71.00;;
37163;Laerm;23057;48.554;14.454;2023-09-12T10:10:31;56.66;49.40;72.04;;
37163;Laerm;23057;48.554;14.454;2023-09-12T10:13:03;55.09;49.35;70.97;;
37163;Laerm;23057;48.554;14.454;2023-09-12T10:15:38;54.43;49.60;70.24;;
37163;Laerm;23057;48.554;14.454;2023-09-12T10:18:22;54.03;50.61;70.03;;
37163;Laerm;23057;48.554;14.454;2023-09-12T10:21:15;56.16;49.56;79.68;;
37163;Laerm;23057;48.554;14.454;2023-09-12T10:23:50;56.27;49.60;73.29;;
37163;Laerm;23057;48.554;14.454;2023-09-12T10:26:23;57.14;49.34;72.79;;
37163;Laerm;23057;48.554;14.454;2023-09-12T10:28:55;56.29;49.38;70.91;;
37163;Laerm;23057;48.554;14.454;2023-09-12T10:31:27;57.23;48.99;72.80;;
37163;Laerm;23057;48.554;14.454;2023-09-12T10:34:00;57.72;48.95;73.73;;
37163;Laerm;23057;48.554;14.454;2023-09-12T10:36:39;57.25;48.94;72.70;;
37163;Laerm;23057;48.554;14.454;2023-09-12T10:39:14;56.37;49.73;81.79;;
37163;Laerm;23057;48.554;14.454;2023-09-12T10:41:46;56.86;51.84;70.68;;
37163;Laerm;23057;48.554;14.454;2023-09-12T10:44:18;56.78;49.77;73.34;;
37163;Laerm;23057;48.554;14.454;2023-09-12T10:46:53;56.94;50.46;71.26;;
37163;Laerm;23057;48.554;14.454;2023-09-12T10:49:25;56.13;51.31;69.84;;
37163;Laerm;23057;48.554;14.454;2023-09-12T10:51:57;56.43;52.79;82.61;;
37163;Laerm;23057;48.554;14.454;2023-09-12T10:54:46;57.78;52.99;69.97;;
37163;Laerm;23057;48.554;14.454;2023-09-12T10:57:17;57.09;50.75;71.06;;
37163;Laerm;23057;48.554;14.454;2023-09-12T11:02:40;55.27;50.85;68.95;;
37163;Laerm;23057;48.554;14.454;2023-09-12T11:05:37;55.71;51.00;70.56;;
37163;Laerm;23057;48.554;14.454;2023-09-12T11:08:08;56.37;51.97;70.49;;
37163;Laerm;23057;48.554;14.454;2023-09-12T11:10:39;56.14;51.44;69.83;;
37163;Laerm;23057;48.554;14.454;2023-09-12T11:13:18;56.55;51.17;69.90;;
37163;Laerm;23057;48.554;14.454;2023-09-12T11:16:15;56.78;52.46;82.89;;
37163;Laerm;23057;48.554;14.454;2023-09-12T11:19:19;57.15;52.19;70.12;;
37163;Laerm;23057;48.554;14.454;2023-09-12T11:21:53;57.82;53.08;69.28;;
37163;Laerm;23057;48.554;14.454;2023-09-12T11:24:26;57.41;52.08;69.48;;
37163;Laerm;23057;48.554;14.454;2023-09-12T11:27:00;57.69;53.10;69.96;;
37163;Laerm;23057;48.554;14.454;2023-09-12T11:29:38;55.00;49.57;83.30;;
37163;Laerm;23057;48.554;14.454;2023-09-12T11:32:10;57.16;51.33;71.13;;
37163;Laerm;23057;48.554;14.454;2023-09-12T11:34:43;62.97;51.86;72.19;;
37163;Laerm;23057;48.554;14.454;2023-09-12T11:37:25;63.74;51.25;72.99;;
37163;Laerm;23057;48.554;14.454;2023-09-12T11:39:56;60.71;49.97;72.58;;
37163;Laerm;23057;48.554;14.454;2023-09-12T11:42:29;60.42;49.92;70.06;;
37163;Laerm;23057;48.554;14.454;2023-09-12T11:45:01;63.05;50.68;69.78;;
37163;Laerm;23057;48.554;14.454;2023-09-12T11:47:32;65.47;50.51;71.98;;
37163;Laerm;23057;48.554;14.454;2023-09-12T11:50:05;66.43;54.32;71.16;;
37163;Laerm;23057;48.554;14.454;2023-09-12T11:52:36;65.83;53.67;73.27;;
37163;Laerm;23057;48.554;14.454;2023-09-12T11:55:10;62.83;50.35;75.85;;
37163;Laerm;23057;48.554;14.454;2023-09-12T11:57:41;62.54;50.01;72.51;;
37163;Laerm;23057;48.554;14.454;2023-09-12T12:00:13;53.82;49.75;70.19;;
37163;Laerm;23057;48.554;14.454;2023-09-12T12:02:44;54.08;50.05;68.16;;
37163;Laerm;23057;48.554;14.454;2023-09-12T12:05:15;57.91;50.10;71.08;;
37163;Laerm;23057;48.554;14.454;2023-09-12T12:07:48;60.06;55.39;71.01;;
37163;Laerm;23057;48.554;14.454;2023-09-12T12:10:19;61.48;52.16;70.39;;
37163;Laerm;23057;48.554;14.454;2023-09-12T12:12:53;62.48;59.82;69.44;;
37163;Laerm;23057;48.554;14.454;2023-09-12T12:15:27;62.40;59.13;71.20;;
37163;Laerm;23057;48.554;14.454;2023-09-12T12:17:58;62.51;59.50;70.11;;
37163;Laerm;23057;48.554;14.454;2023-09-12T12:20:29;62.49;59.20;70.08;;
37163;Laerm;23057;48.554;14.454;2023-09-12T12:23:01;62.46;57.01;70.84;;
37163;Laerm;23057;48.554;14.454;2023-09-12T12:25:35;62.53;59.88;70.31;;
37163;Laerm;23057;48.554;14.454;2023-09-12T12:28:06;62.77;57.82;70.21;;
37163;Laerm;23057;48.554;14.454;2023-09-12T12:30:37;63.74;60.31;72.05;;
37163;Laerm;23057;48.554;14.454;2023-09-12T12:33:10;64.22;59.22;71.67;;
37163;Laerm;23057;48.554;14.454;2023-09-12T12:35:41;63.62;54.45;70.77;;
37163;Laerm;23057;48.554;14.454;2023-09-12T12:38:12;62.39;55.50;69.39;;
37163;Laerm;23057;48.554;14.454;2023-09-12T12:40:43;62.16;57.67;70.22;;
37163;Laerm;23057;48.554;14.454;2023-09-12T12:43:20;62.40;55.47;71.24;;
37163;Laerm;23057;48.554;14.454;2023-09-12T12:45:56;62.54;59.34;69.53;;
37163;Laerm;23057;48.554;14.454;2023-09-12T12:48:35;62.50;60.03;69.23;;
37163;Laerm;23057;48.554;14.454;2023-09-12T12:51:25;62.41;57.81;71.48;;
37163;Laerm;23057;48.554;14.454;2023-09-12T12:54:04;62.62;59.25;71.84;;
37163;Laerm;23057;48.554;14.454;2023-09-12T12:56:38;62.76;56.33;70.95;;
37163;Laerm;23057;48.554;14.454;2023-09-12T12:59:10;62.53;58.43;70.96;;
37163;Laerm;23057;48.554;14.454;2023-09-12T13:01:41;62.23;58.52;71.93;;
37163;Laerm;23057;48.554;14.454;2023-09-12T13:04:12;61.64;58.23;70.38;;
37163;Laerm;23057;48.554;14.454;2023-09-12T13:06:43;61.46;59.15;75.94;;
37163;Laerm;23057;48.554;14.454;2023-09-12T13:09:13;61.39;58.32;70.23;;
37163;Laerm;23057;48.554;14.454;2023-09-12T13:11:46;60.87;56.58;68.56;;
37163;Laerm;23057;48.554;14.454;2023-09-12T13:14:17;61.66;58.80;67.39;;
37163;Laerm;23057;48.554;14.454;2023-09-12T13:16:49;60.13;57.22;64.94;;
37163;Laerm;23057;48.554;14.454;2023-09-12T13:19:20;59.85;57.37;62.75;;
37163;Laerm;23057;48.554;14.454;2023-09-12T13:21:51;59.73;57.69;66.07;;
37163;Laerm;23057;48.554;14.454;2023-09-12T13:24:22;59.73;56.58;68.82;;
37163;Laerm;23057;48.554;14.454;2023-09-12T13:26:53;58.33;52.68;70.61;;
37163;Laerm;23057;48.554;14.454;2023-09-12T13:29:24;58.40;52.46;68.63;;
37163;Laerm;23057;48.554;14.454;2023-09-12T13:31:55;60.36;53.67;69.97;;
37163;Laerm;23057;48.554;14.454;2023-09-12T13:34:26;57.53;52.35;68.36;;
37163;Laerm;23057;48.554;14.454;2023-09-12T13:36:57;59.80;53.27;69.44;;
37163;Laerm;23057;48.554;14.454;2023-09-12T13:39:28;60.21;57.72;64.66;;
37163;Laerm;23057;48.554;14.454;2023-09-12T13:41:59;60.45;58.89;65.33;;
37163;Laerm;23057;48.554;14.454;2023-09-12T13:44:33;58.27;53.13;70.33;;
37163;Laerm;23057;48.554;14.454;2023-09-12T13:47:04;62.63;51.50;72.63;;
37163;Laerm;23057;48.554;14.454;2023-09-12T13:49:35;62.22;54.77;65.93;;
37163;Laerm;23057;48.554;14.454;2023-09-12T13:52:06;60.51;57.42;66.64;;
37163;Laerm;23057;48.554;14.454;2023-09-12T13:54:37;60.02;54.31;67.09;;
37163;Laerm;23057;48.554;14.454;2023-09-12T13:57:08;57.94;52.11;69.23;;
37163;Laerm;23057;48.554;14.454;2023-09-12T13:59:39;55.47;49.58;67.94;;
37163;Laerm;23057;48.554;14.454;2023-09-12T14:02:10;52.78;48.67;63.48;;
37163;Laerm;23057;48.554;14.454;2023-09-12T14:04:41;58.82;50.61;68.69;;
37163;Laerm;23057;48.554;14.454;2023-09-12T14:07:12;57.20;50.02;68.98;;